Time;durP1;ratioP1;P1;durP2;ratioP2;P2;SDS_P1;SDS_P2;PMS_P1;PMS_P2;Temp;Humidity;BMP_temperature;BMP_pressure;BME280_temperature;BME280_humidity;BME280_pressure;Samples;Min_cycle;Max_cycle;Signal;HPM_P1;HPM_P2
2023/01/23 00:00:54;;;;;;;19.00;12.25;;;2.70;99.90;;;;;;7362414;19;20018;-60
2023/01/23 00:03:20;;;;;;;18.50;13.18;;;2.70;99.90;;;;;;7365627;19;20525;-60
2023/01/23 00:06:01;;;;;;;18.95;12.80;;;2.70;99.90;;;;;;7368483;19;20393;-60
2023/01/23 00:08:29;;;;;;;18.73;12.88;;;2.70;99.90;;;;;;7367121;19;20018;-60
2023/01/23 00:10:55;;;;;;;19.65;13.20;;;2.70;99.90;;;;;;7366505;19;20026;-61
2023/01/23 00:13:22;;;;;;;15.90;12.23;;;2.80;99.90;;;;;;7363746;19;20340;-60
2023/01/23 00:15:49;;;;;;;19.38;12.38;;;2.70;99.90;;;;;;7366264;19;20074;-60
2023/01/23 00:18:15;;;;;;;16.27;11.13;;;2.80;99.90;;;;;;7368306;19;20024;-60
2023/01/23 00:20:42;;;;;;;20.33;13.20;;;2.80;99.90;;;;;;7369657;19;20018;-60
2023/01/23 00:23:10;;;;;;;16.67;11.85;;;2.70;99.90;;;;;;7368783;19;20010;-61
2023/01/23 00:25:37;;;;;;;19.15;13.05;;;2.70;99.90;;;;;;7368365;19;20445;-60
2023/01/23 00:28:06;;;;;;;22.65;12.60;;;2.70;99.90;;;;;;7367035;19;20014;-64
2023/01/23 00:30:32;;;;;;;19.92;12.40;;;2.70;99.90;;;;;;7368104;19;20023;-60
2023/01/23 00:32:59;;;;;;;21.50;12.80;;;2.70;99.90;;;;;;7369381;19;20010;-60
2023/01/23 00:35:26;;;;;;;17.73;12.45;;;2.70;99.90;;;;;;7366524;19;20078;-60
2023/01/23 00:37:54;;;;;;;22.77;13.82;;;2.70;99.90;;;;;;7367556;19;20019;-61
2023/01/23 00:40:20;;;;;;;18.80;12.45;;;2.70;99.90;;;;;;7365969;19;20015;-61
2023/01/23 00:42:46;;;;;;;20.92;12.35;;;2.70;99.90;;;;;;7366651;19;20499;-60
2023/01/23 00:45:12;;;;;;;17.38;12.43;;;2.80;99.90;;;;;;7362292;19;20018;-63
2023/01/23 00:47:39;;;;;;;22.05;12.73;;;2.80;99.90;;;;;;7367717;19;20599;-60
2023/01/23 00:50:06;;;;;;;19.08;12.50;;;2.70;99.90;;;;;;7363812;19;20018;-64
2023/01/23 00:52:32;;;;;;;20.05;13.38;;;2.70;99.90;;;;;;7367358;19;20795;-64
2023/01/23 00:54:58;;;;;;;24.13;12.95;;;2.70;99.90;;;;;;7366907;19;20485;-64
2023/01/23 00:57:24;;;;;;;19.05;13.13;;;2.80;99.90;;;;;;7366876;19;20531;-60
2023/01/23 00:59:51;;;;;;;22.17;15.55;;;2.70;99.90;;;;;;7365808;19;20033;-61
2023/01/23 01:02:17;;;;;;;20.30;13.68;;;2.70;99.90;;;;;;7367310;19;20287;-60
2023/01/23 01:04:43;;;;;;;23.17;13.88;;;2.70;99.90;;;;;;7363386;19;20628;-64
2023/01/23 01:07:10;;;;;;;22.60;13.15;;;2.70;99.90;;;;;;7364419;19;20045;-64
2023/01/23 01:09:37;;;;;;;20.38;14.30;;;2.70;99.90;;;;;;7363625;19;20389;-64
2023/01/23 01:12:04;;;;;;;20.90;13.93;;;2.70;99.90;;;;;;7363736;19;20024;-66
2023/01/23 01:14:30;;;;;;;19.70;13.60;;;2.70;99.90;;;;;;7362418;19;20018;-64
2023/01/23 01:16:57;;;;;;;20.13;14.40;;;2.80;99.90;;;;;;7363354;19;20018;-65
2023/01/23 01:19:24;;;;;;;21.73;13.95;;;2.70;99.90;;;;;;7363902;19;20030;-65
2023/01/23 01:21:50;;;;;;;19.80;13.90;;;2.80;99.90;;;;;;7362633;19;20018;-64
2023/01/23 01:24:16;;;;;;;19.92;13.82;;;2.70;99.90;;;;;;7365526;19;20521;-64
2023/01/23 01:26:43;;;;;;;24.00;14.38;;;2.80;99.90;;;;;;7366256;19;20603;-64
2023/01/23 01:29:12;;;;;;;22.70;14.80;;;2.70;99.90;;;;;;7367457;19;20385;-66
2023/01/23 01:31:43;;;;;;;22.00;15.18;;;2.70;99.90;;;;;;7366544;19;20027;-64
2023/01/23 01:34:13;;;;;;;19.23;13.43;;;2.70;99.90;;;;;;7361302;19;20023;-65
2023/01/23 01:36:39;;;;;;;23.20;14.95;;;2.80;99.90;;;;;;7365870;19;20041;-64
2023/01/23 01:39:06;;;;;;;20.17;14.63;;;2.80;99.90;;;;;;7364497;19;20018;-61
2023/01/23 01:41:32;;;;;;;20.92;15.95;;;2.70;99.90;;;;;;7371622;19;20039;-60
2023/01/23 01:43:59;;;;;;;20.88;15.20;;;2.80;99.90;;;;;;7366326;19;20013;-60
2023/01/23 01:46:27;;;;;;;20.73;14.80;;;2.80;99.90;;;;;;7370777;19;20511;-60
2023/01/23 01:49:06;;;;;;;21.27;15.30;;;2.80;99.90;;;;;;7365654;19;20679;-61
2023/01/23 01:51:41;;;;;;;20.83;15.65;;;2.70;99.90;;;;;;7368451;19;20029;-61
2023/01/23 01:54:31;;;;;;;20.98;14.68;;;2.70;99.90;;;;;;7366109;19;20025;-64
2023/01/23 01:57:00;;;;;;;24.80;16.00;;;2.70;99.90;;;;;;7365742;19;20025;-64
2023/01/23 01:59:29;;;;;;;22.10;14.93;;;2.70;99.90;;;;;;7363411;19;20023;-64
2023/01/23 02:02:03;;;;;;;23.83;15.00;;;2.70;99.90;;;;;;7366209;19;20022;-64
2023/01/23 02:04:36;;;;;;;23.65;16.17;;;2.70;99.90;;;;;;7366248;19;20014;-65
2023/01/23 02:07:07;;;;;;;29.70;15.70;;;2.70;99.90;;;;;;7367046;19;20035;-60
2023/01/23 02:09:34;;;;;;;24.70;16.02;;;2.70;99.90;;;;;;7368158;19;20022;-64
2023/01/23 02:12:04;;;;;;;22.02;15.05;;;2.70;99.90;;;;;;7365388;19;20018;-61
2023/01/23 02:14:30;;;;;;;25.02;15.43;;;2.70;99.90;;;;;;7365155;19;20023;-64
2023/01/23 02:16:59;;;;;;;21.23;15.52;;;2.70;99.90;;;;;;7365163;19;20500;-64
2023/01/23 02:19:32;;;;;;;27.08;17.48;;;2.70;99.90;;;;;;7364284;19;20022;-64
2023/01/23 02:22:12;;;;;;;20.05;15.10;;;2.70;99.90;;;;;;7369733;19;20564;-64
2023/01/23 02:24:47;;;;;;;23.42;16.30;;;2.70;99.90;;;;;;7376639;19;20437;-64
2023/01/23 02:27:17;;;;;;;25.38;17.00;;;2.70;99.90;;;;;;7373866;19;20045;-64
2023/01/23 02:29:47;;;;;;;28.17;16.77;;;2.70;99.90;;;;;;7374057;19;20015;-64
2023/01/23 02:32:14;;;;;;;25.80;15.85;;;2.80;99.90;;;;;;7374057;19;20098;-64
2023/01/23 02:34:43;;;;;;;24.70;16.08;;;2.80;99.90;;;;;;7375110;19;20785;-64
2023/01/23 02:37:11;;;;;;;22.20;15.60;;;2.80;99.90;;;;;;7371507;19;20050;-64
2023/01/23 02:39:38;;;;;;;22.00;15.40;;;2.80;99.90;;;;;;7373775;19;20505;-64
2023/01/23 02:42:05;;;;;;;22.67;16.33;;;2.80;99.90;;;;;;7372265;19;20022;-64
2023/01/23 02:44:44;;;;;;;23.80;16.17;;;2.80;99.90;;;;;;7374202;19;20444;-64
2023/01/23 02:47:12;;;;;;;22.50;16.40;;;2.80;99.90;;;;;;7372808;19;20026;-64
2023/01/23 02:49:41;;;;;;;25.42;14.55;;;2.80;99.90;;;;;;7375882;19;20102;-64
2023/01/23 02:52:08;;;;;;;26.25;16.40;;;2.80;99.90;;;;;;7373876;19;20769;-64
2023/01/23 02:54:35;;;;;;;20.77;15.13;;;2.80;99.90;;;;;;7374209;19;20029;-64
2023/01/23 02:57:02;;;;;;;25.58;15.63;;;2.70;99.90;;;;;;7374174;19;20018;-64
2023/01/23 03:02:17;;;;;;;21.75;16.10;;;2.80;99.90;;;;;;7371830;19;20469;-64
2023/01/23 03:04:43;;;;;;;26.25;15.85;;;2.80;99.90;;;;;;7372235;19;20037;-64
2023/01/23 03:07:09;;;;;;;24.35;16.60;;;2.80;99.90;;;;;;7373266;19;20420;-64
2023/01/23 03:09:37;;;;;;;21.10;15.65;;;2.80;99.90;;;;;;7371080;19;20531;-64
2023/01/23 03:12:04;;;;;;;22.98;14.38;;;2.80;99.90;;;;;;7366208;19;20019;-64
2023/01/23 03:14:31;;;;;;;21.95;15.20;;;2.80;99.90;;;;;;7365029;19;20022;-64
2023/01/23 03:16:58;;;;;;;26.55;17.00;;;2.80;99.90;;;;;;7370759;19;20513;-64
2023/01/23 03:19:30;;;;;;;23.73;15.10;;;2.70;99.90;;;;;;7367548;19;20546;-64
2023/01/23 03:21:56;;;;;;;20.90;15.65;;;2.80;99.90;;;;;;7371376;19;21367;-64
2023/01/23 03:24:22;;;;;;;20.92;14.43;;;2.70;99.90;;;;;;7370213;19;20015;-64
2023/01/23 03:26:50;;;;;;;22.83;14.93;;;2.80;99.90;;;;;;7372468;19;20506;-64
2023/01/23 03:32:14;;;;;;;22.45;15.13;;;2.80;99.90;;;;;;7365259;19;20018;-64
2023/01/23 03:34:42;;;;;;;23.35;15.60;;;2.80;99.90;;;;;;7370909;19;20020;-64
2023/01/23 03:37:10;;;;;;;20.42;14.38;;;2.80;99.90;;;;;;7370233;19;20023;-64
2023/01/23 03:42:26;;;;;;;23.58;14.73;;;2.80;99.90;;;;;;7362711;19;20493;-64
2023/01/23 03:44:55;;;;;;;21.02;15.45;;;2.80;99.90;;;;;;7370225;19;20026;-60
2023/01/23 03:47:25;;;;;;;25.75;15.70;;;2.80;99.90;;;;;;7370379;19;20027;-60
2023/01/23 03:49:54;;;;;;;23.67;15.63;;;2.80;99.90;;;;;;7369547;19;20600;-64
2023/01/23 03:52:20;;;;;;;22.92;15.35;;;2.80;99.90;;;;;;7369804;19;21468;-60
2023/01/23 03:54:47;;;;;;;29.00;15.90;;;2.80;99.90;;;;;;7371047;19;20017;-64
2023/01/23 03:57:13;;;;;;;20.35;15.20;;;2.80;99.90;;;;;;7373401;19;20006;-60
2023/01/23 03:59:48;;;;;;;24.92;16.05;;;2.80;99.90;;;;;;7373377;19;20074;-60
2023/01/23 04:02:17;;;;;;;24.52;15.68;;;2.80;99.90;;;;;;7371340;19;20090;-64
2023/01/23 04:04:51;;;;;;;24.42;15.38;;;2.80;99.90;;;;;;7370140;19;20392;-64
2023/01/23 04:07:18;;;;;;;24.08;15.65;;;2.80;99.90;;;;;;7369622;19;20022;-64
2023/01/23 04:09:44;;;;;;;22.92;14.93;;;2.80;99.90;;;;;;7369824;19;20474;-60
2023/01/23 04:12:11;;;;;;;22.95;15.45;;;2.80;99.90;;;;;;7370413;19;20059;-64
2023/01/23 04:14:42;;;;;;;22.05;15.13;;;2.80;99.90;;;;;;7368983;19;20598;-64
2023/01/23 04:17:10;;;;;;;21.67;16.33;;;2.90;99.90;;;;;;7369601;19;20359;-65
2023/01/23 04:19:37;;;;;;;21.60;15.07;;;2.80;99.90;;;;;;7368840;19;20577;-64
2023/01/23 04:22:03;;;;;;;19.52;15.25;;;2.80;99.90;;;;;;7369844;19;20014;-64
2023/01/23 04:24:36;;;;;;;20.30;14.98;;;2.80;99.90;;;;;;7370915;19;20018;-64
2023/01/23 04:27:03;;;;;;;27.52;15.55;;;2.80;99.90;;;;;;7368305;19;20133;-60
2023/01/23 04:29:29;;;;;;;24.52;15.77;;;2.80;99.90;;;;;;7367624;19;20021;-64
2023/01/23 04:31:56;;;;;;;22.42;15.32;;;2.80;99.90;;;;;;7370754;19;20014;-60
2023/01/23 04:34:22;;;;;;;23.38;16.10;;;2.80;99.90;;;;;;7369530;19;20049;-64
2023/01/23 04:36:50;;;;;;;23.42;14.27;;;2.80;99.90;;;;;;7369793;19;20014;-64
2023/01/23 04:39:17;;;;;;;21.75;15.27;;;2.80;99.90;;;;;;7363775;19;20026;-64
2023/01/23 04:41:46;;;;;;;23.33;15.75;;;2.80;99.90;;;;;;7369187;19;20374;-64
2023/01/23 04:44:32;;;;;;;21.10;15.55;;;2.80;99.90;;;;;;7365783;19;20393;-65
2023/01/23 04:47:19;;;;;;;23.67;15.05;;;2.80;99.90;;;;;;7366779;19;20015;-64
2023/01/23 04:49:48;;;;;;;20.25;14.93;;;2.80;99.90;;;;;;7367713;19;20030;-64
2023/01/23 04:52:17;;;;;;;19.00;15.13;;;2.80;99.90;;;;;;7367625;19;20031;-64
2023/01/23 04:54:52;;;;;;;20.25;15.30;;;2.80;99.90;;;;;;7370984;19;20021;-64
2023/01/23 04:57:19;;;;;;;21.20;15.05;;;2.80;99.90;;;;;;7367038;19;20022;-64
2023/01/23 04:59:45;;;;;;;23.35;15.32;;;2.80;99.90;;;;;;7367519;19;20015;-63
2023/01/23 05:02:12;;;;;;;21.92;15.20;;;2.80;99.90;;;;;;7366866;19;20010;-64
2023/01/23 05:04:44;;;;;;;21.30;14.98;;;2.80;99.90;;;;;;7371896;19;20443;-64
2023/01/23 05:07:11;;;;;;;23.70;15.50;;;2.80;99.90;;;;;;7367348;19;20022;-60
2023/01/23 05:09:42;;;;;;;20.38;15.13;;;2.80;99.90;;;;;;7369834;19;20434;-60
2023/01/23 05:12:13;;;;;;;19.10;14.82;;;2.80;99.90;;;;;;7368534;19;20476;-60
2023/01/23 05:14:40;;;;;;;22.80;16.45;;;2.80;99.90;;;;;;7370110;19;20015;-64
2023/01/23 05:17:08;;;;;;;20.17;14.73;;;2.80;99.90;;;;;;7370208;19;20018;-60
2023/01/23 05:19:39;;;;;;;22.00;16.98;;;2.80;99.90;;;;;;7369165;19;20277;-64
2023/01/23 05:22:06;;;;;;;24.52;15.25;;;2.80;99.90;;;;;;7363179;19;20449;-64
2023/01/23 05:24:32;;;;;;;22.88;16.85;;;2.80;99.90;;;;;;7365307;19;20596;-60
2023/01/23 05:26:59;;;;;;;23.13;17.10;;;2.80;99.90;;;;;;7364562;19;20027;-61
2023/01/23 05:29:29;;;;;;;19.50;14.50;;;2.80;99.90;;;;;;7359939;19;20023;-60
2023/01/23 05:32:09;;;;;;;20.10;15.00;;;2.80;99.90;;;;;;7362510;19;20571;-60
2023/01/23 05:34:35;;;;;;;23.08;16.60;;;2.80;99.90;;;;;;7360688;19;20415;-60
2023/01/23 05:37:06;;;;;;;23.63;15.85;;;2.80;99.90;;;;;;7358473;19;20473;-60
2023/01/23 05:39:35;;;;;;;21.88;15.43;;;2.90;99.90;;;;;;7351241;19;20014;-60
2023/01/23 05:42:02;;;;;;;23.48;16.00;;;2.80;99.90;;;;;;7357155;19;20359;-61
2023/01/23 05:44:47;;;;;;;23.98;16.60;;;2.80;99.90;;;;;;7360841;19;20022;-64
2023/01/23 05:47:24;;;;;;;21.83;15.18;;;2.80;99.90;;;;;;7361829;19;20015;-64
2023/01/23 05:49:51;;;;;;;24.23;15.82;;;2.80;99.90;;;;;;7358166;19;20107;-64
2023/01/23 05:52:18;;;;;;;21.38;16.27;;;2.80;99.90;;;;;;7361491;19;20014;-60
2023/01/23 05:54:45;;;;;;;23.17;16.38;;;2.80;99.90;;;;;;7357840;19;20014;-60
2023/01/23 05:57:13;;;;;;;26.92;17.77;;;2.80;99.90;;;;;;7366624;19;20023;-64
2023/01/23 06:00:12;;;;;;;23.73;15.52;;;2.70;99.90;;;;;;7361952;19;20726;-60
2023/01/23 06:02:43;;;;;;;25.00;16.52;;;2.80;99.90;;;;;;7361281;19;20015;-64
2023/01/23 06:05:45;;;;;;;26.35;16.23;;;2.80;99.90;;;;;;7357371;19;20044;-61
2023/01/23 06:08:17;;;;;;;27.50;15.98;;;2.80;99.90;;;;;;7362593;19;20019;-64
2023/01/23 06:10:47;;;;;;;21.55;15.85;;;2.70;99.90;;;;;;7369031;19;20719;-61
2023/01/23 06:13:16;;;;;;;22.55;15.60;;;2.80;99.90;;;;;;7363112;19;20026;-64
2023/01/23 06:15:42;;;;;;;18.95;15.20;;;2.70;99.90;;;;;;7364478;19;20541;-64
2023/01/23 06:18:11;;;;;;;24.40;15.48;;;2.80;99.90;;;;;;7364123;19;20462;-62
2023/01/23 06:20:37;;;;;;;24.02;16.60;;;2.70;99.90;;;;;;7362246;19;20028;-61
2023/01/23 06:23:04;;;;;;;24.83;15.70;;;2.80;99.90;;;;;;7366270;19;20010;-61
2023/01/23 06:25:30;;;;;;;27.70;17.15;;;2.80;99.90;;;;;;7362475;19;20018;-71
2023/01/23 06:28:00;;;;;;;24.20;16.30;;;2.80;99.90;;;;;;7362754;19;20027;-61
2023/01/23 06:30:32;;;;;;;22.42;17.98;;;2.80;99.90;;;;;;7358489;19;20023;-60
2023/01/23 06:33:02;;;;;;;23.23;16.60;;;2.80;99.90;;;;;;7368726;19;20018;-60
2023/01/23 06:35:35;;;;;;;23.38;16.27;;;2.80;99.90;;;;;;7363617;19;20318;-61
2023/01/23 06:38:01;;;;;;;23.33;16.42;;;2.80;99.90;;;;;;7365949;19;20468;-61
2023/01/23 06:40:28;;;;;;;20.08;16.00;;;2.80;99.90;;;;;;7361237;19;20667;-61
2023/01/23 06:43:15;;;;;;;21.77;15.60;;;2.80;99.90;;;;;;7365225;19;20026;-60
2023/01/23 06:45:46;;;;;;;25.17;16.95;;;2.80;99.90;;;;;;7365712;19;20034;-60
2023/01/23 06:48:13;;;;;;;20.67;15.25;;;2.80;99.90;;;;;;7365800;19;20025;-61
2023/01/23 06:50:42;;;;;;;23.95;16.75;;;2.80;99.90;;;;;;7356393;19;20033;-61
2023/01/23 06:53:15;;;;;;;21.17;15.60;;;2.80;99.90;;;;;;7366524;19;20025;-60
2023/01/23 06:55:44;;;;;;;25.02;16.27;;;2.80;99.90;;;;;;7368851;19;20472;-61
2023/01/23 06:58:14;;;;;;;23.13;15.52;;;2.80;99.90;;;;;;7366073;19;20014;-60
2023/01/23 07:00:47;;;;;;;22.77;14.63;;;2.80;99.90;;;;;;7363371;19;20019;-65
2023/01/23 07:03:33;;;;;;;23.55;16.67;;;2.80;99.90;;;;;;7363909;19;20027;-64
2023/01/23 07:06:05;;;;;;;21.73;17.33;;;2.80;99.90;;;;;;7365076;19;20010;-64
2023/01/23 07:08:33;;;;;;;24.15;16.15;;;2.80;99.90;;;;;;7363240;19;20055;-60
2023/01/23 07:11:00;;;;;;;24.05;17.77;;;2.80;99.90;;;;;;7364253;19;20041;-65
2023/01/23 07:13:28;;;;;;;21.58;17.58;;;2.80;99.90;;;;;;7359180;19;20018;-65
2023/01/23 07:15:56;;;;;;;24.65;16.67;;;2.80;99.90;;;;;;7364056;19;20069;-65
2023/01/23 07:18:24;;;;;;;22.38;17.27;;;2.80;99.90;;;;;;7363653;19;20025;-60
2023/01/23 07:20:50;;;;;;;24.10;17.70;;;2.80;99.90;;;;;;7362421;19;20433;-62
2023/01/23 07:23:17;;;;;;;20.45;16.33;;;2.80;99.90;;;;;;7364765;19;20366;-61
2023/01/23 07:25:43;;;;;;;22.83;16.48;;;2.80;99.90;;;;;;7364864;19;20064;-61
2023/01/23 07:28:10;;;;;;;25.55;17.02;;;2.80;99.90;;;;;;7366966;19;20011;-60
2023/01/23 07:30:38;;;;;;;25.83;18.13;;;2.80;99.90;;;;;;7361435;19;20097;-60
2023/01/23 07:33:06;;;;;;;24.27;18.05;;;2.80;99.90;;;;;;7363357;19;20018;-61
2023/01/23 07:35:32;;;;;;;24.08;17.17;;;2.80;99.90;;;;;;7366168;19;20015;-60
2023/01/23 07:38:05;;;;;;;27.02;17.38;;;2.80;99.90;;;;;;7364209;19;20086;-60
2023/01/23 07:40:37;;;;;;;25.20;17.25;;;2.80;99.90;;;;;;7361752;19;20536;-62
2023/01/23 07:43:04;;;;;;;24.58;16.70;;;2.80;99.90;;;;;;7363041;19;20595;-60
2023/01/23 07:45:30;;;;;;;26.10;17.60;;;2.80;99.90;;;;;;7364686;19;20882;-61
2023/01/23 07:47:57;;;;;;;22.00;17.52;;;2.80;99.90;;;;;;7363224;19;20014;-61
2023/01/23 07:50:23;;;;;;;27.17;19.33;;;2.80;99.90;;;;;;7361587;19;20015;-60
2023/01/23 07:52:50;;;;;;;23.85;18.85;;;2.80;99.90;;;;;;7360136;19;20512;-61
2023/01/23 07:55:17;;;;;;;24.63;16.95;;;2.80;99.90;;;;;;7363362;19;20018;-60
2023/01/23 07:57:46;;;;;;;24.20;16.95;;;2.80;99.90;;;;;;7363872;19;20026;-60
2023/01/23 08:00:13;;;;;;;21.15;13.65;;;2.80;99.90;;;;;;7364782;19;20018;-62
2023/01/23 08:02:40;;;;;;;20.40;15.88;;;2.90;99.90;;;;;;7367125;19;20478;-60
2023/01/23 08:05:07;;;;;;;20.38;15.52;;;2.80;99.90;;;;;;7361280;19;20022;-60
2023/01/23 08:07:34;;;;;;;25.48;16.92;;;2.80;99.90;;;;;;7361077;19;20630;-60
2023/01/23 08:10:00;;;;;;;24.60;16.23;;;2.80;99.90;;;;;;7365336;19;20022;-65
2023/01/23 08:12:27;;;;;;;20.65;15.75;;;2.80;99.90;;;;;;7362740;19;20018;-65
2023/01/23 08:15:00;;;;;;;22.50;16.98;;;2.80;99.90;;;;;;7364121;19;20729;-64
2023/01/23 08:17:27;;;;;;;23.52;16.88;;;2.80;99.90;;;;;;7361593;19;20049;-65
2023/01/23 08:19:53;;;;;;;23.42;16.45;;;2.90;99.90;;;;;;7355814;19;20106;-65
2023/01/23 08:22:20;;;;;;;21.55;17.48;;;2.90;99.90;;;;;;7358335;19;20029;-65
2023/01/23 08:24:50;;;;;;;19.27;15.38;;;2.90;99.90;;;;;;7361034;19;20292;-64
2023/01/23 08:27:17;;;;;;;22.15;16.67;;;2.90;99.90;;;;;;7359926;19;20018;-64
2023/01/23 08:29:43;;;;;;;22.20;16.90;;;2.90;99.90;;;;;;7364215;19;20014;-61
2023/01/23 08:32:10;;;;;;;27.77;17.65;;;2.90;99.90;;;;;;7361962;19;20022;-60
2023/01/23 08:34:36;;;;;;;21.10;15.98;;;2.90;99.90;;;;;;7360862;19;20588;-64
2023/01/23 08:37:06;;;;;;;17.00;12.98;;;2.90;99.90;;;;;;7361581;19;20022;-66
2023/01/23 08:39:35;;;;;;;23.88;16.30;;;2.90;99.90;;;;;;7357099;19;20026;-64
2023/01/23 08:42:01;;;;;;;21.90;15.52;;;3.00;99.90;;;;;;7362909;19;20036;-60
2023/01/23 08:44:30;;;;;;;23.60;16.88;;;3.00;99.90;;;;;;7356919;19;20136;-61
2023/01/23 08:47:02;;;;;;;19.67;15.70;;;3.00;99.90;;;;;;7358927;19;20513;-60
2023/01/23 08:49:29;;;;;;;20.77;14.63;;;3.00;99.90;;;;;;7360315;19;20034;-61
2023/01/23 08:51:56;;;;;;;19.20;15.00;;;3.00;99.90;;;;;;7358654;19;20019;-60
2023/01/23 08:54:22;;;;;;;19.98;14.80;;;3.10;99.90;;;;;;7360410;19;20018;-65
2023/01/23 08:56:49;;;;;;;15.70;12.43;;;3.10;99.90;;;;;;7363778;19;20458;-60
2023/01/23 08:59:16;;;;;;;18.90;14.07;;;3.10;99.90;;;;;;7360193;19;20460;-60
2023/01/23 09:01:42;;;;;;;17.15;12.55;;;3.20;99.90;;;;;;7362952;19;20021;-60
2023/01/23 09:04:12;;;;;;;17.23;14.40;;;3.20;99.90;;;;;;7362376;19;20378;-60
2023/01/23 09:06:39;;;;;;;19.35;14.13;;;3.20;99.90;;;;;;7359923;19;20086;-60
2023/01/23 09:09:05;;;;;;;16.80;13.77;;;3.30;99.90;;;;;;7360852;19;20350;-60
2023/01/23 09:11:32;;;;;;;16.80;12.60;;;3.30;99.90;;;;;;7360874;19;20025;-62
2023/01/23 09:14:03;;;;;;;17.70;13.68;;;3.40;99.90;;;;;;7359920;19;20373;-60
2023/01/23 09:16:33;;;;;;;14.68;12.02;;;3.40;99.90;;;;;;7357380;19;20422;-60
2023/01/23 09:18:59;;;;;;;14.50;12.18;;;3.40;99.90;;;;;;7359686;19;20631;-61
2023/01/23 09:21:26;;;;;;;16.92;13.00;;;3.40;99.90;;;;;;7360233;19;20063;-60
2023/01/23 09:23:56;;;;;;;16.92;11.88;;;3.50;99.90;;;;;;7365755;19;20777;-60
2023/01/23 09:26:27;;;;;;;;;;;3.50;99.90;;;;;;7356632;19;20414;-60
2023/01/23 09:28:54;;;;;;;15.23;12.13;;;3.50;99.90;;;;;;7361127;19;19990;-60
2023/01/23 09:31:22;;;;;;;16.45;11.27;;;3.60;99.90;;;;;;7357527;19;20018;-60
2023/01/23 09:33:48;;;;;;;16.10;11.65;;;3.60;99.90;;;;;;7360213;19;20057;-60
2023/01/23 09:36:17;;;;;;;17.38;12.40;;;3.60;99.90;;;;;;7361685;19;20030;-62
2023/01/23 09:38:43;;;;;;;15.20;11.07;;;3.70;99.90;;;;;;7361964;19;20466;-63
2023/01/23 09:41:18;;;;;;;15.15;11.88;;;3.70;99.90;;;;;;7358256;19;20041;-61
2023/01/23 09:44:10;;;;;;;15.63;11.80;;;3.70;99.90;;;;;;7362396;19;20144;-61
2023/01/23 09:47:10;;;;;;;13.95;11.00;;;3.70;99.90;;;;;;7360460;19;20061;-61
2023/01/23 09:49:49;;;;;;;26.17;19.02;;;3.70;99.90;;;;;;7357356;19;20371;-60
2023/01/23 09:52:19;;;;;;;15.65;10.93;;;3.70;99.90;;;;;;7361534;19;20050;-61
2023/01/23 09:55:12;;;;;;;14.85;11.30;;;3.70;99.90;;;;;;7360613;19;20041;-61
2023/01/23 09:57:42;;;;;;;;;;;3.70;99.90;;;;;;7359779;19;20022;-61
2023/01/23 10:00:15;;;;;;;13.50;9.93;;;3.70;99.90;;;;;;7362810;19;19926;-61
2023/01/23 10:02:43;;;;;;;12.50;10.93;;;3.80;99.90;;;;;;7359686;19;20466;-63
2023/01/23 10:05:17;;;;;;;19.08;12.80;;;3.80;99.90;;;;;;7360836;19;20041;-61
2023/01/23 10:07:46;;;;;;;13.77;11.40;;;3.80;99.90;;;;;;7363200;19;20010;-61
2023/01/23 10:10:48;;;;;;;18.00;12.23;;;3.80;99.90;;;;;;7360940;19;20070;-61
2023/01/23 10:13:18;;;;;;;22.67;12.52;;;3.80;99.90;;;;;;7360540;19;20018;-61
2023/01/23 10:16:17;;;;;;;13.77;10.75;;;3.80;99.90;;;;;;7360129;19;20026;-61
2023/01/23 10:19:07;;;;;;;14.13;10.95;;;3.90;99.90;;;;;;7359266;19;20018;-61
2023/01/23 10:21:51;;;;;;;19.40;13.27;;;3.80;99.90;;;;;;7358439;19;20386;-61
2023/01/23 10:24:36;;;;;;;11.48;9.45;;;3.80;99.90;;;;;;7355529;19;20015;-61
2023/01/23 10:27:25;;;;;;;11.82;9.70;;;3.80;99.90;;;;;;7358115;19;20022;-61
2023/01/23 10:30:20;;;;;;;11.73;9.00;;;3.80;99.90;;;;;;7358758;19;20018;-60
2023/01/23 10:33:00;;;;;;;14.38;10.95;;;3.80;99.90;;;;;;7363451;19;20022;-61
2023/01/23 10:35:46;;;;;;;13.68;9.60;;;3.90;99.90;;;;;;7358672;19;20030;-61
2023/01/23 10:38:32;;;;;;;12.02;8.98;;;3.90;99.90;;;;;;7358824;19;20014;-61
2023/01/23 10:41:14;;;;;;;13.45;10.73;;;3.90;99.90;;;;;;7357056;19;20030;-61
2023/01/23 10:43:48;;;;;;;13.63;9.85;;;3.90;99.90;;;;;;7361267;19;20015;-62
2023/01/23 10:46:16;;;;;;;10.95;9.43;;;3.90;99.90;;;;;;7363997;19;20018;-61
2023/01/23 10:48:47;;;;;;;14.00;9.98;;;3.90;99.90;;;;;;7365358;19;20014;-61
2023/01/23 10:51:27;;;;;;;13.77;9.80;;;3.90;99.90;;;;;;7366459;19;20525;-61
2023/01/23 10:54:03;;;;;;;12.05;8.63;;;4.00;99.90;;;;;;7364229;19;20019;-61
2023/01/23 10:56:32;;;;;;;17.65;14.10;;;4.00;99.90;;;;;;7366918;19;20023;-61
2023/01/23 10:59:01;;;;;;;9.20;7.80;;;3.90;99.90;;;;;;7367027;19;20027;-61
2023/01/23 11:01:30;;;;;;;11.95;9.50;;;3.90;99.90;;;;;;7365484;19;20537;-61
2023/01/23 11:04:07;;;;;;;14.48;9.93;;;3.90;99.90;;;;;;7363693;19;20029;-62
2023/01/23 11:06:34;;;;;;;13.70;10.45;;;4.00;99.90;;;;;;7366028;19;20022;-61
2023/01/23 11:09:03;;;;;;;14.20;9.80;;;3.90;99.90;;;;;;7365847;19;20025;-61
2023/01/23 11:11:33;;;;;;;12.10;8.77;;;4.00;99.90;;;;;;7364942;19;20814;-61
2023/01/23 11:14:22;;;;;;;12.80;10.32;;;4.00;99.90;;;;;;7366495;19;20019;-61
2023/01/23 11:17:16;;;;;;;12.13;10.18;;;4.00;99.90;;;;;;7365438;19;20408;-61
2023/01/23 11:19:52;;;;;;;16.88;10.77;;;4.00;99.90;;;;;;7362906;19;20461;-61
2023/01/23 11:22:32;;;;;;;14.40;10.35;;;4.00;99.90;;;;;;7364489;19;20085;-61
2023/01/23 11:24:59;;;;;;;19.70;12.52;;;4.00;99.90;;;;;;7364264;19;20014;-61
2023/01/23 11:27:29;;;;;;;15.70;9.48;;;4.00;99.90;;;;;;7366099;19;20022;-61
2023/01/23 11:30:08;;;;;;;11.55;9.95;;;4.00;99.90;;;;;;7364140;19;20019;-60
2023/01/23 11:32:54;;;;;;;14.63;9.85;;;4.00;99.90;;;;;;7362528;19;20019;-63
2023/01/23 11:35:33;;;;;;;13.70;10.07;;;4.00;99.90;;;;;;7362821;19;20025;-62
2023/01/23 11:38:02;;;;;;;15.80;12.70;;;4.10;99.90;;;;;;7363875;19;20010;-62
2023/01/23 11:40:28;;;;;;;12.05;9.93;;;4.10;99.90;;;;;;7360642;19;20053;-64
2023/01/23 11:42:55;;;;;;;14.65;11.27;;;4.10;99.90;;;;;;7363602;19;20028;-64
2023/01/23 11:45:24;;;;;;;13.18;11.18;;;4.10;99.90;;;;;;7363620;19;20027;-64
2023/01/23 11:48:06;;;;;;;14.50;12.00;;;4.00;99.90;;;;;;7363397;19;20026;-65
2023/01/23 11:51:04;;;;;;;12.05;10.77;;;4.10;99.90;;;;;;7361975;19;20026;-62
2023/01/23 11:53:45;;;;;;;18.38;15.32;;;4.10;99.90;;;;;;7364077;19;20035;-64
2023/01/23 11:56:20;;;;;;;14.77;11.65;;;4.10;99.90;;;;;;7361604;19;20026;-63
2023/01/23 11:59:01;;;;;;;18.48;11.35;;;4.10;99.90;;;;;;7361780;19;20037;-63
2023/01/23 12:01:42;;;;;;;12.77;10.98;;;4.20;99.90;;;;;;7364102;19;20018;-64
2023/01/23 12:04:50;;;;;;;16.67;11.73;;;4.20;99.90;;;;;;7363465;19;20406;-66
2023/01/23 12:07:24;;;;;;;15.45;11.68;;;4.30;99.90;;;;;;7361915;19;20391;-63
2023/01/23 12:10:02;;;;;;;15.75;13.05;;;4.30;99.90;;;;;;7359201;19;20506;-63
2023/01/23 12:12:28;;;;;;;16.45;13.00;;;4.40;99.90;;;;;;7361606;19;20015;-63
2023/01/23 12:15:41;;;;;;;16.88;12.60;;;4.50;99.90;;;;;;7363187;19;20543;-63
2023/01/23 12:18:13;;;;;;;17.45;14.23;;;4.50;99.90;;;;;;7359728;19;20203;-63
2023/01/23 12:20:53;;;;;;;17.52;14.25;;;4.60;99.90;;;;;;7360531;19;20382;-64
2023/01/23 12:23:48;;;;;;;23.58;19.58;;;4.50;99.90;;;;;;7359218;19;20022;-64
2023/01/23 12:26:21;;;;;;;13.25;10.60;;;4.60;99.90;;;;;;7365396;19;20018;-64
2023/01/23 12:29:36;;;;;;;21.90;17.65;;;4.50;99.90;;;;;;7364539;19;20051;-64
2023/01/23 12:32:15;;;;;;;17.35;13.65;;;4.50;99.90;;;;;;7358878;19;20421;-63
2023/01/23 12:35:03;;;;;;;31.42;22.27;;;4.50;99.90;;;;;;7364446;19;20026;-63
2023/01/23 12:37:42;;;;;;;14.55;11.48;;;4.50;99.90;;;;;;7361696;19;20019;-63
2023/01/23 12:40:31;;;;;;;13.63;10.35;;;4.60;99.90;;;;;;7361644;19;20053;-63
2023/01/23 12:43:13;;;;;;;14.30;12.45;;;4.60;99.90;;;;;;7365355;19;20605;-64
2023/01/23 12:45:56;;;;;;;14.82;12.30;;;4.50;99.90;;;;;;7360786;19;20020;-64
2023/01/23 12:48:35;;;;;;;17.73;14.48;;;4.50;99.90;;;;;;7361917;19;20027;-63
2023/01/23 12:51:15;;;;;;;18.35;13.55;;;4.50;99.90;;;;;;7359090;19;20022;-63
2023/01/23 12:53:47;;;;;;;23.63;18.90;;;4.50;99.90;;;;;;7362286;19;20026;-64
2023/01/23 12:56:22;;;;;;;16.50;13.60;;;4.50;99.90;;;;;;7357974;19;20033;-65
2023/01/23 12:59:01;;;;;;;13.93;12.38;;;4.50;99.90;;;;;;7363396;19;20069;-63
2023/01/23 13:01:57;;;;;;;13.82;12.13;;;4.50;99.90;;;;;;7355840;19;20014;-63
2023/01/23 13:04:23;;;;;;;16.52;14.30;;;4.50;99.90;;;;;;7359322;19;20019;-63
2023/01/23 13:07:19;;;;;;;16.42;14.45;;;4.50;99.90;;;;;;7357695;19;20597;-63
2023/01/23 13:10:06;;;;;;;25.90;19.63;;;4.50;99.90;;;;;;7360101;19;20022;-63